sensor_id;sensor_type;location;lat;lon;timestamp;P1;durP1;ratioP1;P2;durP2;ratioP2
68543;SDS011;55534;52.222;5.156;2023-06-22T00:01:52;5.38;;;4.10;;
68543;SDS011;55534;52.222;5.156;2023-06-22T00:04:17;7.47;;;4.95;;
68543;SDS011;55534;52.222;5.156;2023-06-22T00:06:42;6.57;;;3.92;;
68543;SDS011;55534;52.222;5.156;2023-06-22T00:09:08;6.00;;;5.20;;
68543;SDS011;55534;52.222;5.156;2023-06-22T00:11:35;5.78;;;4.50;;
68543;SDS011;55534;52.222;5.156;2023-06-22T00:14:01;7.45;;;5.28;;
68543;SDS011;55534;52.222;5.156;2023-06-22T00:16:26;6.32;;;5.18;;
68543;SDS011;55534;52.222;5.156;2023-06-22T00:18:52;6.70;;;5.00;;
68543;SDS011;55534;52.222;5.156;2023-06-22T00:21:17;8.90;;;5.78;;
68543;SDS011;55534;52.222;5.156;2023-06-22T00:23:45;6.38;;;5.78;;
68543;SDS011;55534;52.222;5.156;2023-06-22T00:26:10;7.05;;;5.50;;
68543;SDS011;55534;52.222;5.156;2023-06-22T00:28:36;6.65;;;6.03;;
68543;SDS011;55534;52.222;5.156;2023-06-22T00:31:02;8.57;;;6.15;;
68543;SDS011;55534;52.222;5.156;2023-06-22T00:33:27;7.13;;;5.55;;
68543;SDS011;55534;52.222;5.156;2023-06-22T00:35:53;9.50;;;6.68;;
68543;SDS011;55534;52.222;5.156;2023-06-22T00:38:19;8.38;;;7.45;;
68543;SDS011;55534;52.222;5.156;2023-06-22T00:40:44;10.13;;;6.13;;
68543;SDS011;55534;52.222;5.156;2023-06-22T00:43:10;8.65;;;6.85;;
68543;SDS011;55534;52.222;5.156;2023-06-22T00:45:35;7.60;;;6.80;;
68543;SDS011;55534;52.222;5.156;2023-06-22T00:48:01;6.38;;;5.20;;
68543;SDS011;55534;52.222;5.156;2023-06-22T00:50:28;12.93;;;6.05;;
68543;SDS011;55534;52.222;5.156;2023-06-22T00:52:58;7.10;;;6.25;;
68543;SDS011;55534;52.222;5.156;2023-06-22T00:55:26;7.53;;;6.13;;
68543;SDS011;55534;52.222;5.156;2023-06-22T00:57:52;9.55;;;7.57;;
68543;SDS011;55534;52.222;5.156;2023-06-22T01:00:21;8.23;;;6.63;;
68543;SDS011;55534;52.222;5.156;2023-06-22T01:02:50;9.25;;;6.05;;
68543;SDS011;55534;52.222;5.156;2023-06-22T01:05:17;6.20;;;5.35;;
68543;SDS011;55534;52.222;5.156;2023-06-22T01:13:29;9.27;;;6.38;;
68543;SDS011;55534;52.222;5.156;2023-06-22T01:15:59;9.27;;;6.75;;
68543;SDS011;55534;52.222;5.156;2023-06-22T01:18:28;7.70;;;6.90;;
68543;SDS011;55534;52.222;5.156;2023-06-22T01:20:55;8.77;;;7.38;;
68543;SDS011;55534;52.222;5.156;2023-06-22T01:26:08;8.85;;;6.95;;
68543;SDS011;55534;52.222;5.156;2023-06-22T01:28:43;9.13;;;6.22;;
68543;SDS011;55534;52.222;5.156;2023-06-22T01:31:10;7.18;;;6.30;;
68543;SDS011;55534;52.222;5.156;2023-06-22T01:33:37;7.97;;;6.72;;
68543;SDS011;55534;52.222;5.156;2023-06-22T01:36:05;9.55;;;7.75;;
68543;SDS011;55534;52.222;5.156;2023-06-22T01:38:32;8.20;;;6.90;;
68543;SDS011;55534;52.222;5.156;2023-06-22T01:40:58;10.00;;;7.32;;
68543;SDS011;55534;52.222;5.156;2023-06-22T01:43:26;11.65;;;8.48;;
68543;SDS011;55534;52.222;5.156;2023-06-22T01:45:54;9.27;;;7.90;;
68543;SDS011;55534;52.222;5.156;2023-06-22T01:48:21;10.43;;;8.40;;
68543;SDS011;55534;52.222;5.156;2023-06-22T01:50:46;10.63;;;9.40;;
68543;SDS011;55534;52.222;5.156;2023-06-22T01:53:12;13.60;;;9.60;;
68543;SDS011;55534;52.222;5.156;2023-06-22T01:55:37;11.40;;;10.25;;
68543;SDS011;55534;52.222;5.156;2023-06-22T01:58:03;11.70;;;9.60;;
68543;SDS011;55534;52.222;5.156;2023-06-22T02:00:29;15.43;;;10.77;;
68543;SDS011;55534;52.222;5.156;2023-06-22T02:03:21;14.93;;;12.20;;
68543;SDS011;55534;52.222;5.156;2023-06-22T02:06:34;18.42;;;13.20;;
68543;SDS011;55534;52.222;5.156;2023-06-22T02:08:49;14.07;;;12.45;;
68543;SDS011;55534;52.222;5.156;2023-06-22T02:11:20;14.48;;;12.65;;
68543;SDS011;55534;52.222;5.156;2023-06-22T02:13:49;14.55;;;12.68;;
68543;SDS011;55534;52.222;5.156;2023-06-22T02:16:15;14.50;;;12.93;;
68543;SDS011;55534;52.222;5.156;2023-06-22T02:18:46;17.30;;;15.25;;
68543;SDS011;55534;52.222;5.156;2023-06-22T02:21:16;20.27;;;16.75;;
68543;SDS011;55534;52.222;5.156;2023-06-22T02:23:42;16.95;;;14.20;;
68543;SDS011;55534;52.222;5.156;2023-06-22T02:26:07;17.67;;;15.60;;
68543;SDS011;55534;52.222;5.156;2023-06-22T02:28:33;16.10;;;14.45;;
68543;SDS011;55534;52.222;5.156;2023-06-22T02:30:59;17.52;;;15.73;;
68543;SDS011;55534;52.222;5.156;2023-06-22T02:33:24;16.33;;;14.43;;
68543;SDS011;55534;52.222;5.156;2023-06-22T02:35:50;18.52;;;15.50;;
68543;SDS011;55534;52.222;5.156;2023-06-22T02:38:15;19.70;;;17.38;;
68543;SDS011;55534;52.222;5.156;2023-06-22T02:40:43;19.40;;;16.25;;
68543;SDS011;55534;52.222;5.156;2023-06-22T02:43:09;21.27;;;17.27;;
68543;SDS011;55534;52.222;5.156;2023-06-22T02:45:34;20.67;;;16.95;;
68543;SDS011;55534;52.222;5.156;2023-06-22T02:48:00;18.98;;;17.08;;
68543;SDS011;55534;52.222;5.156;2023-06-22T02:50:25;20.15;;;18.08;;
68543;SDS011;55534;52.222;5.156;2023-06-22T02:52:52;22.10;;;18.30;;
68543;SDS011;55534;52.222;5.156;2023-06-22T02:55:17;21.73;;;18.35;;
68543;SDS011;55534;52.222;5.156;2023-06-22T02:57:50;20.42;;;17.83;;
68543;SDS011;55534;52.222;5.156;2023-06-22T03:00:18;20.30;;;16.45;;
68543;SDS011;55534;52.222;5.156;2023-06-22T03:02:46;21.35;;;18.08;;
68543;SDS011;55534;52.222;5.156;2023-06-22T03:05:13;21.95;;;17.98;;
68543;SDS011;55534;52.222;5.156;2023-06-22T03:07:42;20.17;;;18.08;;
68543;SDS011;55534;52.222;5.156;2023-06-22T03:10:09;22.73;;;17.33;;
68543;SDS011;55534;52.222;5.156;2023-06-22T03:12:36;21.88;;;17.88;;
68543;SDS011;55534;52.222;5.156;2023-06-22T03:15:05;23.38;;;18.95;;
68543;SDS011;55534;52.222;5.156;2023-06-22T03:17:32;20.58;;;18.35;;
68543;SDS011;55534;52.222;5.156;2023-06-22T03:19:58;23.10;;;18.35;;
68543;SDS011;55534;52.222;5.156;2023-06-22T03:22:24;21.67;;;18.52;;
68543;SDS011;55534;52.222;5.156;2023-06-22T03:24:50;21.13;;;18.55;;
68543;SDS011;55534;52.222;5.156;2023-06-22T03:27:16;20.80;;;17.98;;
68543;SDS011;55534;52.222;5.156;2023-06-22T03:29:41;25.55;;;20.05;;
68543;SDS011;55534;52.222;5.156;2023-06-22T03:32:06;22.77;;;18.35;;
68543;SDS011;55534;52.222;5.156;2023-06-22T03:34:32;22.23;;;19.42;;
68543;SDS011;55534;52.222;5.156;2023-06-22T03:37:03;24.40;;;19.70;;
68543;SDS011;55534;52.222;5.156;2023-06-22T03:39:29;21.50;;;19.20;;
68543;SDS011;55534;52.222;5.156;2023-06-22T03:41:56;20.73;;;17.65;;
68543;SDS011;55534;52.222;5.156;2023-06-22T03:44:23;24.40;;;20.77;;
68543;SDS011;55534;52.222;5.156;2023-06-22T03:46:48;26.13;;;19.88;;
68543;SDS011;55534;52.222;5.156;2023-06-22T03:49:14;23.63;;;19.80;;
68543;SDS011;55534;52.222;5.156;2023-06-22T03:51:39;23.38;;;20.35;;
68543;SDS011;55534;52.222;5.156;2023-06-22T03:54:04;21.80;;;18.90;;
68543;SDS011;55534;52.222;5.156;2023-06-22T03:56:30;23.20;;;19.05;;
68543;SDS011;55534;52.222;5.156;2023-06-22T03:58:56;21.80;;;18.58;;
68543;SDS011;55534;52.222;5.156;2023-06-22T04:01:21;26.55;;;21.52;;
68543;SDS011;55534;52.222;5.156;2023-06-22T04:03:47;22.42;;;19.58;;
68543;SDS011;55534;52.222;5.156;2023-06-22T04:06:14;26.48;;;22.05;;
68543;SDS011;55534;52.222;5.156;2023-06-22T04:08:40;24.55;;;20.92;;
68543;SDS011;55534;52.222;5.156;2023-06-22T04:11:06;24.25;;;20.98;;
68543;SDS011;55534;52.222;5.156;2023-06-22T04:13:31;29.10;;;23.23;;
68543;SDS011;55534;52.222;5.156;2023-06-22T04:15:56;27.55;;;23.38;;
68543;SDS011;55534;52.222;5.156;2023-06-22T04:18:22;26.80;;;22.25;;
68543;SDS011;55534;52.222;5.156;2023-06-22T04:20:47;30.10;;;24.40;;
68543;SDS011;55534;52.222;5.156;2023-06-22T04:23:13;26.48;;;23.40;;
68543;SDS011;55534;52.222;5.156;2023-06-22T04:25:39;28.83;;;24.30;;
68543;SDS011;55534;52.222;5.156;2023-06-22T04:28:04;25.40;;;22.58;;
68543;SDS011;55534;52.222;5.156;2023-06-22T04:30:30;27.90;;;23.42;;
68543;SDS011;55534;52.222;5.156;2023-06-22T04:32:58;26.38;;;21.55;;
68543;SDS011;55534;52.222;5.156;2023-06-22T04:35:24;24.50;;;21.85;;
68543;SDS011;55534;52.222;5.156;2023-06-22T04:37:50;28.88;;;23.75;;
68543;SDS011;55534;52.222;5.156;2023-06-22T04:40:21;29.52;;;23.23;;
68543;SDS011;55534;52.222;5.156;2023-06-22T04:42:47;29.60;;;24.00;;
68543;SDS011;55534;52.222;5.156;2023-06-22T04:45:18;28.60;;;23.80;;
68543;SDS011;55534;52.222;5.156;2023-06-22T04:47:45;27.35;;;23.58;;
68543;SDS011;55534;52.222;5.156;2023-06-22T04:50:13;27.55;;;24.48;;
68543;SDS011;55534;52.222;5.156;2023-06-22T04:52:39;25.50;;;22.65;;
68543;SDS011;55534;52.222;5.156;2023-06-22T04:55:05;26.40;;;23.60;;
68543;SDS011;55534;52.222;5.156;2023-06-22T04:57:31;26.75;;;23.83;;
68543;SDS011;55534;52.222;5.156;2023-06-22T05:00:01;28.60;;;23.27;;
68543;SDS011;55534;52.222;5.156;2023-06-22T05:02:26;27.40;;;23.20;;
68543;SDS011;55534;52.222;5.156;2023-06-22T05:04:52;28.70;;;25.02;;
68543;SDS011;55534;52.222;5.156;2023-06-22T05:07:21;29.27;;;26.17;;
68543;SDS011;55534;52.222;5.156;2023-06-22T05:09:50;31.58;;;27.98;;
68543;SDS011;55534;52.222;5.156;2023-06-22T05:12:16;33.50;;;26.45;;
68543;SDS011;55534;52.222;5.156;2023-06-22T05:14:41;30.15;;;25.88;;
68543;SDS011;55534;52.222;5.156;2023-06-22T05:17:06;32.30;;;28.10;;
68543;SDS011;55534;52.222;5.156;2023-06-22T05:19:38;29.63;;;26.42;;
68543;SDS011;55534;52.222;5.156;2023-06-22T05:22:04;30.63;;;27.17;;
68543;SDS011;55534;52.222;5.156;2023-06-22T05:24:31;31.90;;;26.38;;
68543;SDS011;55534;52.222;5.156;2023-06-22T05:26:57;29.35;;;26.30;;
68543;SDS011;55534;52.222;5.156;2023-06-22T05:29:22;34.05;;;29.67;;
68543;SDS011;55534;52.222;5.156;2023-06-22T05:31:48;33.60;;;28.60;;
68543;SDS011;55534;52.222;5.156;2023-06-22T05:34:14;33.63;;;28.02;;
68543;SDS011;55534;52.222;5.156;2023-06-22T05:36:39;38.83;;;32.22;;
68543;SDS011;55534;52.222;5.156;2023-06-22T05:39:11;37.38;;;30.25;;
68543;SDS011;55534;52.222;5.156;2023-06-22T05:41:38;32.55;;;28.92;;
68543;SDS011;55534;52.222;5.156;2023-06-22T05:44:04;42.30;;;33.47;;
68543;SDS011;55534;52.222;5.156;2023-06-22T05:46:29;36.88;;;31.65;;
68543;SDS011;55534;52.222;5.156;2023-06-22T05:48:55;40.92;;;34.22;;
68543;SDS011;55534;52.222;5.156;2023-06-22T05:51:20;38.75;;;34.63;;
68543;SDS011;55534;52.222;5.156;2023-06-22T05:53:46;37.13;;;32.70;;
68543;SDS011;55534;52.222;5.156;2023-06-22T05:56:14;37.53;;;33.47;;
68543;SDS011;55534;52.222;5.156;2023-06-22T05:58:40;37.40;;;33.45;;
68543;SDS011;55534;52.222;5.156;2023-06-22T06:01:06;36.05;;;31.63;;
68543;SDS011;55534;52.222;5.156;2023-06-22T06:03:31;38.20;;;33.90;;
68543;SDS011;55534;52.222;5.156;2023-06-22T06:05:57;37.72;;;33.38;;
68543;SDS011;55534;52.222;5.156;2023-06-22T06:08:22;37.65;;;33.65;;
68543;SDS011;55534;52.222;5.156;2023-06-22T06:10:48;45.53;;;37.28;;
68543;SDS011;55534;52.222;5.156;2023-06-22T06:13:14;37.60;;;33.00;;
68543;SDS011;55534;52.222;5.156;2023-06-22T06:15:39;41.40;;;36.88;;
68543;SDS011;55534;52.222;5.156;2023-06-22T06:18:04;39.30;;;35.15;;
68543;SDS011;55534;52.222;5.156;2023-06-22T06:20:31;37.30;;;33.40;;
68543;SDS011;55534;52.222;5.156;2023-06-22T06:22:57;35.28;;;31.58;;
68543;SDS011;55534;52.222;5.156;2023-06-22T06:25:23;37.33;;;33.38;;
68543;SDS011;55534;52.222;5.156;2023-06-22T06:27:49;35.63;;;31.75;;
68543;SDS011;55534;52.222;5.156;2023-06-22T06:30:16;34.75;;;31.05;;
68543;SDS011;55534;52.222;5.156;2023-06-22T06:32:43;33.03;;;29.85;;
68543;SDS011;55534;52.222;5.156;2023-06-22T06:35:10;32.88;;;29.40;;
68543;SDS011;55534;52.222;5.156;2023-06-22T06:37:41;33.47;;;29.98;;
68543;SDS011;55534;52.222;5.156;2023-06-22T06:40:08;32.13;;;28.27;;
68543;SDS011;55534;52.222;5.156;2023-06-22T06:42:39;34.60;;;30.80;;
68543;SDS011;55534;52.222;5.156;2023-06-22T06:45:10;29.13;;;26.00;;
68543;SDS011;55534;52.222;5.156;2023-06-22T06:47:36;30.33;;;27.13;;
68543;SDS011;55534;52.222;5.156;2023-06-22T06:50:03;30.00;;;26.83;;
68543;SDS011;55534;52.222;5.156;2023-06-22T06:52:29;31.73;;;28.30;;
68543;SDS011;55534;52.222;5.156;2023-06-22T06:54:55;29.35;;;26.35;;
68543;SDS011;55534;52.222;5.156;2023-06-22T06:57:20;32.28;;;28.95;;
68543;SDS011;55534;52.222;5.156;2023-06-22T06:59:47;28.90;;;25.67;;
68543;SDS011;55534;52.222;5.156;2023-06-22T07:02:14;29.60;;;26.60;;
68543;SDS011;55534;52.222;5.156;2023-06-22T07:04:40;27.38;;;24.23;;
68543;SDS011;55534;52.222;5.156;2023-06-22T07:07:06;26.92;;;24.25;;
68543;SDS011;55534;52.222;5.156;2023-06-22T07:09:31;26.13;;;23.42;;
68543;SDS011;55534;52.222;5.156;2023-06-22T07:11:56;29.75;;;24.73;;
68543;SDS011;55534;52.222;5.156;2023-06-22T07:14:22;25.33;;;22.67;;
68543;SDS011;55534;52.222;5.156;2023-06-22T07:16:47;26.02;;;23.30;;
68543;SDS011;55534;52.222;5.156;2023-06-22T07:19:13;24.80;;;22.38;;
68543;SDS011;55534;52.222;5.156;2023-06-22T07:21:38;24.58;;;21.80;;
68543;SDS011;55534;52.222;5.156;2023-06-22T07:24:04;25.58;;;23.02;;
68543;SDS011;55534;52.222;5.156;2023-06-22T07:26:31;25.73;;;20.77;;
68543;SDS011;55534;52.222;5.156;2023-06-22T07:28:57;28.95;;;21.77;;
68543;SDS011;55534;52.222;5.156;2023-06-22T07:31:26;23.42;;;21.02;;
68543;SDS011;55534;52.222;5.156;2023-06-22T07:33:51;26.05;;;21.90;;
68543;SDS011;55534;52.222;5.156;2023-06-22T07:36:17;24.58;;;21.60;;
68543;SDS011;55534;52.222;5.156;2023-06-22T07:38:43;25.88;;;22.35;;
68543;SDS011;55534;52.222;5.156;2023-06-22T07:41:09;25.05;;;22.30;;
68543;SDS011;55534;52.222;5.156;2023-06-22T07:43:36;25.25;;;22.52;;
68543;SDS011;55534;52.222;5.156;2023-06-22T07:46:05;26.50;;;23.50;;
68543;SDS011;55534;52.222;5.156;2023-06-22T07:48:31;28.15;;;24.48;;
68543;SDS011;55534;52.222;5.156;2023-06-22T07:50:56;25.42;;;22.33;;
68543;SDS011;55534;52.222;5.156;2023-06-22T07:53:22;23.95;;;21.67;;
68543;SDS011;55534;52.222;5.156;2023-06-22T07:55:48;25.00;;;22.40;;
68543;SDS011;55534;52.222;5.156;2023-06-22T07:58:14;22.05;;;19.75;;
68543;SDS011;55534;52.222;5.156;2023-06-22T08:00:40;24.08;;;21.75;;
68543;SDS011;55534;52.222;5.156;2023-06-22T08:03:06;24.83;;;21.98;;
68543;SDS011;55534;52.222;5.156;2023-06-22T08:05:32;21.85;;;19.65;;
68543;SDS011;55534;52.222;5.156;2023-06-22T08:07:57;22.17;;;19.88;;
68543;SDS011;55534;52.222;5.156;2023-06-22T08:10:23;23.83;;;21.30;;
68543;SDS011;55534;52.222;5.156;2023-06-22T08:12:48;21.98;;;19.65;;
68543;SDS011;55534;52.222;5.156;2023-06-22T08:15:14;22.98;;;20.70;;
68543;SDS011;55534;52.222;5.156;2023-06-22T08:17:39;21.73;;;19.70;;
68543;SDS011;55534;52.222;5.156;2023-06-22T08:20:06;20.90;;;18.80;;
68543;SDS011;55534;52.222;5.156;2023-06-22T08:22:35;18.80;;;16.73;;
68543;SDS011;55534;52.222;5.156;2023-06-22T08:25:02;20.40;;;18.45;;
68543;SDS011;55534;52.222;5.156;2023-06-22T08:27:29;19.15;;;17.15;;
68543;SDS011;55534;52.222;5.156;2023-06-22T08:29:57;19.02;;;17.10;;
68543;SDS011;55534;52.222;5.156;2023-06-22T08:32:26;15.50;;;14.00;;
68543;SDS011;55534;52.222;5.156;2023-06-22T08:34:55;21.80;;;17.90;;
68543;SDS011;55534;52.222;5.156;2023-06-22T08:37:21;18.42;;;16.65;;
68543;SDS011;55534;52.222;5.156;2023-06-22T08:39:55;17.48;;;14.55;;
68543;SDS011;55534;52.222;5.156;2023-06-22T08:42:24;17.60;;;15.90;;
68543;SDS011;55534;52.222;5.156;2023-06-22T08:44:50;17.10;;;15.40;;
68543;SDS011;55534;52.222;5.156;2023-06-22T08:47:16;18.98;;;17.00;;
68543;SDS011;55534;52.222;5.156;2023-06-22T08:49:41;16.67;;;14.52;;
68543;SDS011;55534;52.222;5.156;2023-06-22T08:52:07;15.52;;;13.93;;
68543;SDS011;55534;52.222;5.156;2023-06-22T08:54:33;14.20;;;12.73;;
68543;SDS011;55534;52.222;5.156;2023-06-22T08:57:00;14.32;;;12.93;;
68543;SDS011;55534;52.222;5.156;2023-06-22T08:59:26;15.25;;;13.45;;
68543;SDS011;55534;52.222;5.156;2023-06-22T09:01:51;18.30;;;13.55;;
68543;SDS011;55534;52.222;5.156;2023-06-22T09:04:16;19.83;;;12.43;;
68543;SDS011;55534;52.222;5.156;2023-06-22T09:06:42;15.65;;;12.90;;
68543;SDS011;55534;52.222;5.156;2023-06-22T09:09:15;15.15;;;11.68;;
68543;SDS011;55534;52.222;5.156;2023-06-22T09:11:41;13.93;;;12.63;;
68543;SDS011;55534;52.222;5.156;2023-06-22T09:14:06;13.55;;;12.20;;
68543;SDS011;55534;52.222;5.156;2023-06-22T09:16:32;13.40;;;10.43;;
68543;SDS011;55534;52.222;5.156;2023-06-22T09:18:57;10.38;;;8.70;;
68543;SDS011;55534;52.222;5.156;2023-06-22T09:21:23;10.38;;;9.15;;
68543;SDS011;55534;52.222;5.156;2023-06-22T09:23:48;9.25;;;8.05;;
68543;SDS011;55534;52.222;5.156;2023-06-22T09:26:19;7.60;;;6.75;;
68543;SDS011;55534;52.222;5.156;2023-06-22T09:28:45;10.73;;;7.38;;
68543;SDS011;55534;52.222;5.156;2023-06-22T09:31:11;7.72;;;6.38;;
68543;SDS011;55534;52.222;5.156;2023-06-22T09:33:37;8.75;;;6.28;;
68543;SDS011;55534;52.222;5.156;2023-06-22T09:36:08;7.15;;;6.10;;
68543;SDS011;55534;52.222;5.156;2023-06-22T09:38:37;8.60;;;5.75;;
68543;SDS011;55534;52.222;5.156;2023-06-22T09:41:03;8.13;;;5.70;;
68543;SDS011;55534;52.222;5.156;2023-06-22T09:43:30;9.82;;;6.25;;
68543;SDS011;55534;52.222;5.156;2023-06-22T09:45:57;10.27;;;6.40;;
68543;SDS011;55534;52.222;5.156;2023-06-22T09:48:23;7.28;;;6.38;;
68543;SDS011;55534;52.222;5.156;2023-06-22T09:50:48;8.82;;;7.13;;
68543;SDS011;55534;52.222;5.156;2023-06-22T09:53:14;6.72;;;5.40;;
68543;SDS011;55534;52.222;5.156;2023-06-22T09:55:39;8.48;;;7.03;;
68543;SDS011;55534;52.222;5.156;2023-06-22T09:58:05;8.18;;;7.32;;
68543;SDS011;55534;52.222;5.156;2023-06-22T10:00:30;8.30;;;5.72;;
68543;SDS011;55534;52.222;5.156;2023-06-22T10:02:56;6.85;;;4.60;;
68543;SDS011;55534;52.222;5.156;2023-06-22T10:05:22;5.97;;;5.38;;
68543;SDS011;55534;52.222;5.156;2023-06-22T10:07:47;9.07;;;5.03;;
68543;SDS011;55534;52.222;5.156;2023-06-22T10:10:13;7.13;;;6.10;;
68543;SDS011;55534;52.222;5.156;2023-06-22T10:12:42;10.38;;;6.22;;
68543;SDS011;55534;52.222;5.156;2023-06-22T10:15:10;7.45;;;6.60;;
68543;SDS011;55534;52.222;5.156;2023-06-22T10:17:36;8.10;;;6.78;;
68543;SDS011;55534;52.222;5.156;2023-06-22T10:20:02;7.88;;;6.65;;
68543;SDS011;55534;52.222;5.156;2023-06-22T10:22:31;7.50;;;5.90;;
68543;SDS011;55534;52.222;5.156;2023-06-22T10:24:57;7.22;;;6.22;;
68543;SDS011;55534;52.222;5.156;2023-06-22T10:27:22;7.15;;;5.93;;
68543;SDS011;55534;52.222;5.156;2023-06-22T10:29:48;6.43;;;4.80;;
68543;SDS011;55534;52.222;5.156;2023-06-22T10:32:13;8.45;;;5.93;;
68543;SDS011;55534;52.222;5.156;2023-06-22T10:34:38;8.15;;;6.55;;
68543;SDS011;55534;52.222;5.156;2023-06-22T10:37:04;7.32;;;5.50;;
68543;SDS011;55534;52.222;5.156;2023-06-22T10:39:30;6.47;;;5.15;;
68543;SDS011;55534;52.222;5.156;2023-06-22T10:41:55;6.55;;;4.88;;
68543;SDS011;55534;52.222;5.156;2023-06-22T10:44:21;7.78;;;6.03;;
68543;SDS011;55534;52.222;5.156;2023-06-22T10:46:46;8.10;;;5.30;;
68543;SDS011;55534;52.222;5.156;2023-06-22T10:49:12;6.05;;;5.45;;
68543;SDS011;55534;52.222;5.156;2023-06-22T10:51:37;8.15;;;5.10;;
68543;SDS011;55534;52.222;5.156;2023-06-22T10:54:02;9.90;;;5.15;;
68543;SDS011;55534;52.222;5.156;2023-06-22T10:56:29;10.40;;;5.85;;
68543;SDS011;55534;52.222;5.156;2023-06-22T10:58:54;8.00;;;5.28;;
68543;SDS011;55534;52.222;5.156;2023-06-22T11:01:20;6.30;;;5.07;;
68543;SDS011;55534;52.222;5.156;2023-06-22T11:03:45;6.15;;;5.20;;
68543;SDS011;55534;52.222;5.156;2023-06-22T11:06:11;7.97;;;4.85;;
68543;SDS011;55534;52.222;5.156;2023-06-22T11:08:36;7.55;;;5.00;;
68543;SDS011;55534;52.222;5.156;2023-06-22T11:11:02;8.50;;;5.03;;
68543;SDS011;55534;52.222;5.156;2023-06-22T11:13:27;7.45;;;5.25;;
68543;SDS011;55534;52.222;5.156;2023-06-22T11:15:52;7.45;;;5.15;;
68543;SDS011;55534;52.222;5.156;2023-06-22T11:18:18;7.53;;;4.72;;
68543;SDS011;55534;52.222;5.156;2023-06-22T11:20:44;6.78;;;5.53;;
68543;SDS011;55534;52.222;5.156;2023-06-22T11:23:09;6.53;;;5.72;;
68543;SDS011;55534;52.222;5.156;2023-06-22T11:25:36;7.82;;;5.07;;
68543;SDS011;55534;52.222;5.156;2023-06-22T11:28:03;6.88;;;4.57;;
68543;SDS011;55534;52.222;5.156;2023-06-22T11:30:29;5.40;;;4.72;;
68543;SDS011;55534;52.222;5.156;2023-06-22T11:32:56;9.63;;;7.03;;
68543;SDS011;55534;52.222;5.156;2023-06-22T11:35:23;7.00;;;5.82;;
68543;SDS011;55534;52.222;5.156;2023-06-22T11:37:49;11.73;;;7.68;;
68543;SDS011;55534;52.222;5.156;2023-06-22T11:40:15;12.55;;;7.63;;
68543;SDS011;55534;52.222;5.156;2023-06-22T11:42:40;6.50;;;5.90;;
68543;SDS011;55534;52.222;5.156;2023-06-22T11:45:06;6.88;;;6.00;;
68543;SDS011;55534;52.222;5.156;2023-06-22T11:47:32;7.10;;;6.38;;
68543;SDS011;55534;52.222;5.156;2023-06-22T11:49:57;8.88;;;7.90;;
68543;SDS011;55534;52.222;5.156;2023-06-22T11:52:22;12.25;;;8.05;;
68543;SDS011;55534;52.222;5.156;2023-06-22T11:54:48;9.27;;;8.20;;
68543;SDS011;55534;52.222;5.156;2023-06-22T11:57:13;9.55;;;8.55;;
68543;SDS011;55534;52.222;5.156;2023-06-22T11:59:38;9.38;;;8.38;;
68543;SDS011;55534;52.222;5.156;2023-06-22T12:02:04;10.90;;;9.73;;
68543;SDS011;55534;52.222;5.156;2023-06-22T12:04:32;10.73;;;9.07;;
68543;SDS011;55534;52.222;5.156;2023-06-22T12:06:58;12.30;;;9.98;;
68543;SDS011;55534;52.222;5.156;2023-06-22T12:09:23;12.25;;;9.68;;
68543;SDS011;55534;52.222;5.156;2023-06-22T12:11:49;11.15;;;9.98;;
68543;SDS011;55534;52.222;5.156;2023-06-22T12:14:14;10.93;;;9.82;;
68543;SDS011;55534;52.222;5.156;2023-06-22T12:16:40;10.20;;;9.15;;
68543;SDS011;55534;52.222;5.156;2023-06-22T12:19:05;12.20;;;10.27;;
68543;SDS011;55534;52.222;5.156;2023-06-22T12:21:31;12.23;;;10.88;;
68543;SDS011;55534;52.222;5.156;2023-06-22T12:23:56;12.18;;;10.73;;
68543;SDS011;55534;52.222;5.156;2023-06-22T12:26:21;13.10;;;11.70;;
68543;SDS011;55534;52.222;5.156;2023-06-22T12:28:47;12.80;;;11.50;;
68543;SDS011;55534;52.222;5.156;2023-06-22T12:31:12;16.08;;;12.68;;
68543;SDS011;55534;52.222;5.156;2023-06-22T12:33:39;13.82;;;12.52;;
68543;SDS011;55534;52.222;5.156;2023-06-22T12:36:04;15.35;;;13.65;;
68543;SDS011;55534;52.222;5.156;2023-06-22T12:38:30;18.05;;;12.77;;
68543;SDS011;55534;52.222;5.156;2023-06-22T12:40:55;16.02;;;14.32;;
68543;SDS011;55534;52.222;5.156;2023-06-22T12:43:21;13.38;;;11.95;;
68543;SDS011;55534;52.222;5.156;2023-06-22T12:45:46;13.40;;;11.85;;
68543;SDS011;55534;52.222;5.156;2023-06-22T12:48:12;13.70;;;12.50;;
68543;SDS011;55534;52.222;5.156;2023-06-22T12:50:38;13.40;;;12.13;;
68543;SDS011;55534;52.222;5.156;2023-06-22T12:53:03;14.05;;;12.63;;
68543;SDS011;55534;52.222;5.156;2023-06-22T12:55:29;12.05;;;10.95;;
68543;SDS011;55534;52.222;5.156;2023-06-22T12:57:55;11.43;;;9.88;;
68543;SDS011;55534;52.222;5.156;2023-06-22T13:00:20;9.70;;;8.70;;
68543;SDS011;55534;52.222;5.156;2023-06-22T13:02:46;11.85;;;8.85;;
68543;SDS011;55534;52.222;5.156;2023-06-22T13:05:11;8.80;;;8.00;;
68543;SDS011;55534;52.222;5.156;2023-06-22T13:07:37;8.93;;;7.43;;
68543;SDS011;55534;52.222;5.156;2023-06-22T13:10:02;9.70;;;6.82;;
68543;SDS011;55534;52.222;5.156;2023-06-22T13:12:28;8.18;;;6.95;;
68543;SDS011;55534;52.222;5.156;2023-06-22T13:14:54;7.68;;;6.88;;
68543;SDS011;55534;52.222;5.156;2023-06-22T13:17:19;10.30;;;7.18;;
68543;SDS011;55534;52.222;5.156;2023-06-22T13:19:45;9.32;;;6.70;;
68543;SDS011;55534;52.222;5.156;2023-06-22T13:22:31;9.23;;;7.70;;
68543;SDS011;55534;52.222;5.156;2023-06-22T13:24:56;9.73;;;7.18;;
68543;SDS011;55534;52.222;5.156;2023-06-22T13:27:23;7.82;;;6.97;;
68543;SDS011;55534;52.222;5.156;2023-06-22T13:29:48;8.52;;;7.18;;
68543;SDS011;55534;52.222;5.156;2023-06-22T13:32:14;9.18;;;6.97;;
68543;SDS011;55534;52.222;5.156;2023-06-22T13:34:39;9.23;;;7.63;;
68543;SDS011;55534;52.222;5.156;2023-06-22T13:37:05;10.63;;;8.32;;
68543;SDS011;55534;52.222;5.156;2023-06-22T13:39:30;8.65;;;7.80;;
68543;SDS011;55534;52.222;5.156;2023-06-22T13:41:56;17.55;;;8.75;;
68543;SDS011;55534;52.222;5.156;2023-06-22T13:44:22;10.38;;;9.18;;
68543;SDS011;55534;52.222;5.156;2023-06-22T13:46:48;9.25;;;7.68;;
68543;SDS011;55534;52.222;5.156;2023-06-22T13:49:13;10.27;;;9.20;;
68543;SDS011;55534;52.222;5.156;2023-06-22T13:51:39;9.90;;;9.00;;
68543;SDS011;55534;52.222;5.156;2023-06-22T13:54:04;10.45;;;9.23;;
68543;SDS011;55534;52.222;5.156;2023-06-22T13:56:29;10.18;;;9.18;;
68543;SDS011;55534;52.222;5.156;2023-06-22T13:58:55;11.07;;;9.23;;
68543;SDS011;55534;52.222;5.156;2023-06-22T14:01:20;16.25;;;10.00;;
68543;SDS011;55534;52.222;5.156;2023-06-22T14:03:46;9.35;;;8.55;;
68543;SDS011;55534;52.222;5.156;2023-06-22T14:06:13;11.05;;;9.57;;
68543;SDS011;55534;52.222;5.156;2023-06-22T14:08:38;12.63;;;10.13;;
68543;SDS011;55534;52.222;5.156;2023-06-22T14:11:04;11.88;;;10.68;;
68543;SDS011;55534;52.222;5.156;2023-06-22T14:13:29;11.20;;;10.07;;
68543;SDS011;55534;52.222;5.156;2023-06-22T14:15:54;12.88;;;10.90;;
68543;SDS011;55534;52.222;5.156;2023-06-22T14:18:20;12.60;;;11.38;;
68543;SDS011;55534;52.222;5.156;2023-06-22T14:20:47;14.90;;;13.40;;
68543;SDS011;55534;52.222;5.156;2023-06-22T14:23:13;17.67;;;14.05;;
68543;SDS011;55534;52.222;5.156;2023-06-22T14:25:39;16.00;;;14.40;;
68543;SDS011;55534;52.222;5.156;2023-06-22T14:28:05;15.75;;;14.18;;
68543;SDS011;55534;52.222;5.156;2023-06-22T14:30:31;15.23;;;13.70;;
68543;SDS011;55534;52.222;5.156;2023-06-22T14:32:56;16.35;;;13.38;;
68543;SDS011;55534;52.222;5.156;2023-06-22T14:35:22;15.20;;;13.55;;